Latest Weather Observations for Westmere

IDV60801

Issued at 2:31 pm EST Sunday 2 August 2015 (issued every 30 minutes, with the page automatically refreshed every 10 minutes)

About weather observations | Map of weather stations | Latest weather observations for VIC | Other Formats
Station Details ID: 089112 Name: WESTMERE Lat: -37.71 Lon: 142.94 Height: 226.0 m
Data from the previous 72 hours. | See also: Recent months at Westmere
Date/Time
EST
Temp
°C
App
Temp
°C
Dew
Point
Rel
Hum
%
Delta-T
°C
Wind Press
QNH
hPa
Press
MSL
hPa
Rain
since 9 am
mm
Dir
 
Spd
km/h
Gust
km/h
Spd
kts
Gust
kts
02/02:30pm 11.6 4.3 5.5 66 2.9 WNW 33 50 18 27 1009.6 1009.9 0.0
02/02:00pm 11.9 6.0 7.4 74 2.2 WNW 28 52 15 28 1009.9 1010.2 0.0
02/01:30pm 10.6 4.8 7.8 83 1.4 WNW 28 43 15 23 1010.6 1010.9 0.0
02/01:00pm 10.6 3.0 5.8 72 2.2 WNW 35 50 19 27 1010.6 1010.9 0.0
02/12:30pm 11.1 2.7 5.8 70 2.5 WNW 39 52 21 28 1010.8 1011.1 0.0
02/12:00pm 10.9 3.3 5.7 70 2.4 WNW 35 54 19 29 1011.5 1011.8 0.0
02/11:30am 10.3 4.0 5.9 74 2.1 WNW 28 41 15 22 1012.0 1012.3 0.0
02/11:00am 9.8 2.7 5.6 75 1.9 NW 32 43 17 23 1012.2 1012.5 0.0
02/10:30am 9.6 3.4 6.0 78 1.7 WNW 28 37 15 20 1012.7 1012.9 0.0
02/10:00am 8.8 2.4 5.4 79 1.6 NW 28 41 15 22 1012.7 1012.9 0.0
02/09:30am 8.3 2.3 5.1 80 1.4 NW 26 33 14 18 1012.8 1013.0 0.0
02/09:00am 7.0 1.6 4.3 83 1.2 NNW 22 28 12 15 1012.9 1013.1 0.0
02/08:30am 5.2 1.3 3.4 88 0.8 N 13 17 7 9 1013.2 1013.5 0.0
02/08:00am 4.8 0.4 2.8 87 0.8 N 15 20 8 11 1013.1 1013.4 0.0
02/07:30am 5.0 0.3 2.9 86 0.9 NNW 17 20 9 11 1012.9 1013.1 0.0
02/07:00am 5.1 0.4 3.0 86 0.9 NNW 17 20 9 11 1013.1 1013.4 0.0
02/06:30am 5.1 0.0 3.1 87 0.8 NNW 19 24 10 13 1013.1 1013.4 0.0
02/06:00am 5.0 0.7 3.2 88 0.8 NNW 15 20 8 11 1013.1 1013.4 0.0
02/05:30am 5.4 0.8 3.6 88 0.8 NW 17 24 9 13 1013.1 1013.4 0.0
02/05:00am 5.9 0.3 3.4 84 1.1 NW 22 30 12 16 1013.4 1013.7 0.0
02/04:30am 5.6 0.8 2.8 82 1.2 NW 17 28 9 15 1013.3 1013.6 0.0
02/04:00am 4.9 0.9 2.6 85 0.9 N 13 17 7 9 1013.6 1013.9 0.0
02/03:30am 5.2 1.1 2.2 81 1.2 NNW 13 19 7 10 1014.0 1014.3 0.0
02/03:00am 5.0 0.9 2.5 84 1.0 N 13 17 7 9 1014.2 1014.5 0.0
02/02:30am 5.1 1.4 2.5 83 1.1 NNW 11 13 6 7 1014.6 1014.9 0.0
02/02:00am 4.8 1.5 2.5 85 0.9 NNW 9 13 5 7 1014.9 1015.2 0.0
02/01:30am 4.9 1.6 2.4 84 1.0 NNW 9 13 5 7 1014.9 1015.2 0.0
02/01:00am 4.8 1.6 2.8 87 0.8 NNW 9 13 5 7 1015.0 1015.3 0.0
02/12:30am 4.6 1.4 2.9 89 0.7 NNW 9 11 5 6 1015.5 1015.8 0.0
02/12:00am 4.7 1.8 2.6 86 0.9 NNW 7 9 4 5 1015.5 1015.8 0.0
 
Date/Time
EST
Temp
°C
App
Temp
°C
Dew
Point
Rel
Hum
%
Delta-T
°C
Wind Press
QNH
hPa
Press
MSL
hPa
Rain
since 9 am
mm
Dir
 
Spd
km/h
Gust
km/h
Spd
kts
Gust
kts
01/11:30pm 4.8 1.6 2.8 87 0.8 NNW 9 11 5 6 1015.8 1016.1 0.0
01/11:00pm 5.2 1.6 3.2 87 0.8 NW 11 13 6 7 1016.2 1016.5 0.0
01/10:30pm 4.9 1.8 3.4 90 0.6 NNW 9 11 5 6 1016.1 1016.4 0.0
01/10:00pm 5.3 2.6 3.6 89 0.7 NNW 7 9 4 5 1015.8 1016.1 0.0
01/09:30pm 5.2 2.7 3.5 89 0.7 NNW 6 7 3 4 1015.8 1016.1 0.0
01/09:00pm 5.8 2.3 3.6 86 0.9 NW 11 15 6 8 1016.3 1016.6 0.0
01/08:30pm 5.3 2.2 3.6 89 0.7 NW 9 9 5 5 1016.2 1016.5 0.0
01/08:00pm 5.3 2.8 3.6 89 0.7 WNW 6 6 3 3 1015.6 1015.9 0.0
01/07:30pm 5.6 3.1 3.6 87 0.8 W 6 7 3 4 1015.8 1016.1 0.0
01/07:00pm 5.8 3.3 3.5 85 1.0 W 6 6 3 3 1015.3 1015.6 0.0
01/06:30pm 6.4 4.0 4.2 86 1.0 W 6 7 3 4 1015.6 1015.9 0.0
01/06:00pm 6.6 4.1 3.9 83 1.2 W 6 7 3 4 1015.4 1015.7 0.0
01/05:30pm 7.1 4.7 4.2 82 1.3 W 6 7 3 4 1015.4 1015.7 0.0
01/05:00pm 8.1 5.9 3.2 71 2.1 W 4 6 2 3 1015.3 1015.6 0.0
01/04:30pm 8.5 6.3 3.4 70 2.2 W 4 6 2 3 1014.9 1015.2 0.0
01/04:00pm 8.8 5.9 2.4 64 2.7 W 7 11 4 6 1014.6 1014.9 0.0
01/03:30pm 9.0 5.8 3.2 67 2.5 WSW 9 13 5 7 1014.5 1014.8 0.0
01/03:00pm 9.1 5.5 2.7 64 2.8 WSW 11 19 6 10 1014.6 1014.9 0.0
01/02:30pm 9.3 4.9 2.9 64 2.8 WSW 15 20 8 11 1014.4 1014.7 0.0
01/02:00pm 9.4 5.4 2.7 63 2.9 WSW 13 19 7 10 1014.2 1014.5 0.0
01/01:30pm 9.0 4.6 2.8 65 2.7 WSW 15 22 8 12 1014.4 1014.7 0.0
01/01:00pm 9.0 4.1 2.1 62 2.9 WSW 17 24 9 13 1014.7 1015.0 0.0
01/12:30pm 8.8 3.6 2.6 65 2.7 SW 19 30 10 16 1014.7 1015.0 0.0
01/12:00pm 8.6 4.0 3.8 72 2.1 SW 17 24 9 13 1014.9 1015.2 0.0
01/11:30am 8.3 4.6 4.7 78 1.6 WSW 13 20 7 11 1014.8 1015.1 0.0
01/11:00am 8.1 5.0 5.7 85 1.1 WSW 11 17 6 9 1014.9 1015.2 0.0
01/10:30am 7.9 4.6 6.2 89 0.8 WSW 13 20 7 11 1014.7 1015.0 0.0
01/10:00am 7.5 4.7 6.9 96 0.3 W 11 17 6 9 1014.5 1014.8 0.0
01/09:30am 7.4 4.7 7.3 99 0.0 WNW 11 15 6 8 1014.1 1014.5 0.0
01/09:00am 7.2 4.8 7.1 99 0.0 WSW 9 15 5 8 1013.3 1013.6 1.4
01/08:30am 7.0 5.0 6.9 99 0.0 W 7 13 4 7 1012.8 1013.1 1.4
01/08:00am 7.0 3.8 6.9 99 0.0 WSW 13 17 7 9 1012.7 1013.0 1.4
01/07:30am 6.9 3.3 6.8 99 0.0 SW 15 22 8 12 1012.0 1012.4 1.4
01/07:00am 7.2 2.7 7.1 99 0.0 SW 20 28 11 15 1011.5 1011.9 1.2
01/06:30am 7.4 0.7 7.3 99 0.0 SW 32 52 17 28 1010.8 1011.2 1.2
01/06:21am 8.0 3.9 7.9 99 0.0 W 19 54 10 29 1010.5 1010.9 1.2
01/06:00am 8.6 4.7 8.5 99 0.0 NW 19 24 10 13 1009.3 1009.6 0.8
01/05:30am 9.3 5.2 8.7 96 0.3 NW 20 28 11 15 1008.6 1008.9 0.2
01/05:00am 9.3 4.9 7.4 88 0.9 NNW 20 30 11 16 1008.0 1008.3 0.0
01/04:30am 9.3 4.0 6.6 83 1.3 N 24 33 13 18 1007.7 1008.1 0.0
01/04:00am 9.3 3.4 6.0 80 1.5 N 26 37 14 20 1007.9 1008.2 0.0
01/03:30am 9.3 2.2 5.7 78 1.7 N 32 43 17 23 1008.0 1008.3 0.0
01/03:00am 9.0 1.9 5.4 78 1.7 N 32 44 17 24 1008.2 1008.5 0.0
01/02:30am 8.6 1.4 5.0 78 1.6 N 32 44 17 24 1008.4 1008.7 0.0
01/02:00am 8.6 1.7 4.8 77 1.7 N 30 43 16 23 1008.9 1009.2 0.0
01/01:30am 8.5 1.2 4.5 76 1.8 N 32 43 17 23 1009.5 1009.8 0.0
01/01:00am 8.1 1.5 4.3 77 1.7 N 28 37 15 20 1009.9 1010.3 0.0
01/12:30am 7.8 0.7 3.7 75 1.8 N 30 41 16 22 1010.3 1010.7 0.0
01/12:00am 7.8 0.3 3.5 74 1.9 N 32 43 17 23 1010.9 1011.3 0.0
 
Date/Time
EST
Temp
°C
App
Temp
°C
Dew
Point
Rel
Hum
%
Delta-T
°C
Wind Press
QNH
hPa
Press
MSL
hPa
Rain
since 9 am
mm
Dir
 
Spd
km/h
Gust
km/h
Spd
kts
Gust
kts
31/11:30pm 7.8 0.3 3.3 73 1.9 N 32 43 17 23 1011.4 1011.8 0.0
31/11:00pm 7.6 -0.1 3.3 74 1.9 N 33 46 18 25 1011.8 1012.2 0.0
31/10:30pm 7.8 0.3 3.3 73 1.9 N 32 43 17 23 1012.2 1012.6 0.0
31/10:00pm 7.2 2.0 3.8 79 1.5 N 20 26 11 14 1013.0 1013.3 0.0
31/09:30pm 7.4 0.3 3.5 76 1.7 N 30 41 16 22 1012.8 1013.1 0.0
31/09:00pm 7.2 2.0 3.6 78 1.6 N 20 24 11 13 1013.4 1013.7 0.0
31/08:30pm 7.0 1.0 3.1 76 1.7 N 24 30 13 16 1013.7 1014.1 0.0
31/08:00pm 7.2 2.1 2.9 74 1.8 NNW 19 33 10 18 1014.8 1015.2 0.0
31/07:30pm 7.1 2.7 2.8 74 1.8 NNW 15 20 8 11 1015.2 1015.6 0.0
31/07:00pm 7.3 1.6 2.8 73 1.9 N 22 30 12 16 1014.7 1015.1 0.0
31/06:30pm 7.2 2.5 2.9 74 1.8 NNW 17 28 9 15 1015.0 1015.4 0.0
31/06:00pm 6.8 2.8 2.9 76 1.6 N 13 19 7 10 1015.1 1015.5 0.0
31/05:30pm 7.4 3.1 3.3 75 1.8 N 15 20 8 11 1014.8 1015.2 0.0
31/05:00pm 8.1 2.9 3.6 73 2.0 N 20 32 11 17 1015.0 1015.4 0.0
31/04:30pm 9.1 3.5 3.7 69 2.4 N 22 30 12 16 1015.0 1015.4 0.0
31/04:00pm 9.4 3.4 3.6 67 2.6 N 24 33 13 18 1015.0 1015.4 0.0
31/03:30pm 9.5 2.7 3.0 64 2.8 N 28 35 15 19 1015.5 1015.9 0.0
31/03:00pm 9.8 3.4 3.1 63 2.9 N 26 35 14 19 1015.8 1016.2 0.0
31/02:30pm 10.2 4.3 4.1 66 2.7 N 24 33 13 18 1016.3 1016.7 0.0
31/02:00pm 9.9 4.7 3.4 64 2.9 NNW 20 30 11 16 1016.9 1017.3 0.0
31/01:30pm 9.7 4.6 3.9 67 2.6 N 20 28 11 15 1017.4 1017.8 0.0
31/01:00pm 9.2 4.5 3.2 66 2.6 N 17 24 9 13 1018.2 1018.6 0.0
31/12:30pm 9.1 3.9 2.7 64 2.8 N 19 24 10 13 1019.0 1019.4 0.0
31/12:00pm 8.7 3.8 2.3 64 2.7 NNW 17 26 9 14 1019.5 1019.9 0.0
31/11:30am 8.7 4.3 2.5 65 2.6 NW 15 24 8 13 1020.1 1020.5 0.0
31/11:00am 8.1 3.3 2.8 69 2.3 NW 17 24 9 13 1020.8 1021.2 0.0
31/10:30am 7.9 4.2 4.5 79 1.5 NNW 13 17 7 9 1020.8 1021.2 0.0
31/10:00am 7.0 3.3 4.7 85 1.0 NNW 13 19 7 10 1021.1 1021.6 0.0
31/09:30am 5.9 2.6 4.5 91 0.6 NNW 11 15 6 8 1021.0 1021.5 0.0
31/09:00am 4.4 0.6 3.7 95 0.3 NNW 13 19 7 10 1021.2 1021.7 3.8
31/08:30am 3.5 0.7 3.4 99 0.0 NNW 7 9 4 5 1020.9 1021.4 3.8
31/08:00am 1.9 -0.9 1.8 99 0.0 NNW 6 9 3 5 1020.7 1021.1 3.6
31/07:30am 1.2 -1.4 1.1 99 0.0 WNW 4 6 2 3 1020.3 1020.7 3.6
31/07:00am 1.6 -1.3 1.5 99 0.0 NW 6 7 3 4 1020.1 1020.5 3.6
31/06:30am 0.4 -1.9 0.3 99 0.0 NW 2 4 1 2 1019.7 1020.1 3.6
31/06:00am 1.1 -2.1 1.0 99 0.0 NW 7 11 4 6 1019.8 1020.2 3.6
31/05:30am 1.2 -3.1 1.1 99 0.0 NW 13 15 7 8 1019.8 1020.2 3.6
31/05:00am 0.9 -2.3 0.8 99 0.0 NW 7 7 4 4 1019.6 1020.0 3.6
31/04:30am 0.7 -2.9 0.6 99 0.0 NW 9 11 5 6 1019.5 1019.9 3.6
31/04:00am 0.9 -2.7 0.8 99 0.0 NW 9 11 5 6 1019.4 1019.8 3.6
31/03:30am 1.0 -2.6 0.9 99 0.0 NW 9 11 5 6 1019.3 1019.7 3.6
31/03:00am 1.0 -2.6 0.9 99 0.0 NW 9 9 5 5 1019.5 1019.9 3.6
31/02:30am 2.5 -0.8 2.4 99 0.0 WNW 9 9 5 5 1019.6 1020.0 3.6
31/02:00am 2.5 -0.4 2.4 99 0.0 NW 7 9 4 5 1019.5 1019.9 3.6
31/01:30am 2.1 -1.3 2.0 99 0.0 NW 9 9 5 5 1019.3 1019.7 3.6
31/01:00am 2.6 -0.3 2.5 99 0.0 WNW 7 7 4 4 1019.4 1019.8 3.6
31/12:30am 3.7 1.0 3.6 99 0.0 W 7 9 4 5 1019.4 1019.8 3.6
31/12:00am 4.3 1.9 4.2 99 0.0 W 6 9 3 5 1019.1 1019.5 3.6
 
Date/Time
EST
Temp
°C
App
Temp
°C
Dew
Point
Rel
Hum
%
Delta-T
°C
Wind Press
QNH
hPa
Press
MSL
hPa
Rain
since 9 am
mm
Dir
 
Spd
km/h
Gust
km/h
Spd
kts
Gust
kts
30/11:30pm 5.1 2.3 5.0 99 0.0 W 9 11 5 6 1018.8 1019.2 3.6
30/11:00pm 5.1 2.8 4.8 98 0.1 W 6 7 3 4 1018.5 1018.9 3.6
30/10:30pm 5.7 3.3 5.1 96 0.3 W 7 11 4 6 1018.5 1018.9 3.6
30/10:00pm 6.2 3.5 5.6 96 0.3 W 9 13 5 7 1018.3 1018.7 3.6
30/09:30pm 5.9 2.7 5.3 96 0.3 WNW 11 13 6 7 1017.8 1018.2 3.6
30/09:00pm 6.7 3.7 6.0 95 0.3 WNW 11 15 6 8 1017.4 1017.8 3.6
30/08:30pm 7.3 4.4 6.4 94 0.4 W 11 17 6 9 1017.3 1017.7 3.6
30/08:00pm 7.6 4.1 7.0 96 0.3 W 15 24 8 13 1016.7 1017.1 3.6
30/07:30pm 8.1 2.7 8.0 99 0.0 SW 26 37 14 20 1016.2 1016.6 3.2
30/07:00pm 8.6 3.6 8.0 96 0.3 WNW 24 32 13 17 1015.0 1015.4 2.0
30/06:30pm 9.2 4.5 7.8 91 0.7 NNW 22 33 12 18 1014.0 1014.4 0.6
30/06:00pm 8.7 3.4 6.7 87 0.9 N 24 33 13 18 1013.2 1013.5 0.2
30/05:30pm 8.8 2.7 6.4 85 1.1 N 28 35 15 19 1012.8 1013.1 0.2
30/05:00pm 8.9 1.8 6.2 83 1.3 NNW 33 46 18 25 1012.6 1012.9 0.2
30/04:30pm 9.1 2.1 5.8 80 1.5 NNW 32 46 17 25 1012.3 1012.7 0.2
30/04:00pm 8.6 2.0 5.9 83 1.2 NNW 30 48 16 26 1012.8 1013.1 0.2
30/03:52pm 8.9 1.8 5.5 79 1.6 N 32 50 17 27 1012.8 1013.1 0.0
30/03:30pm 9.6 2.0 5.6 76 1.8 N 35 46 19 25 1012.5 1012.8 0.0
30/03:00pm 10.1 2.8 5.5 73 2.1 N 33 50 18 27 1012.2 1012.6 0.0

Other Formats:

Comma delimited format used in spreadsheet applications
http://www.bom.gov.au/fwo/IDV60801/IDV60801.95840.axf

JavaScript Object Notation format (JSON) in row-major order
http://www.bom.gov.au/fwo/IDV60801/IDV60801.95840.json